sensor_id;sensor_type;location;lat;lon;timestamp;pressure;altitude;pressure_sealevel;temperature;humidity
60345;BME280;46188;52.324;8.032;2022-09-09T00:00:23;99746.31;;;12.83;100.00
60345;BME280;46188;52.324;8.032;2022-09-09T00:02:54;99745.44;;;12.83;100.00
60345;BME280;46188;52.324;8.032;2022-09-09T00:07:52;99733.97;;;12.82;100.00
60345;BME280;46188;52.324;8.032;2022-09-09T00:10:37;99735.66;;;12.89;100.00
60345;BME280;46188;52.324;8.032;2022-09-09T00:13:15;99739.13;;;12.95;100.00
60345;BME280;46188;52.324;8.032;2022-09-09T00:21:07;99737.34;;;12.97;100.00
60345;BME280;46188;52.324;8.032;2022-09-09T00:23:39;99733.75;;;13.01;100.00
60345;BME280;46188;52.324;8.032;2022-09-09T00:26:10;99734.63;;;13.06;100.00
60345;BME280;46188;52.324;8.032;2022-09-09T00:28:47;99733.66;;;13.11;100.00
60345;BME280;46188;52.324;8.032;2022-09-09T00:31:16;99727.41;;;13.17;100.00
60345;BME280;46188;52.324;8.032;2022-09-09T00:33:43;99728.25;;;13.22;100.00
60345;BME280;46188;52.324;8.032;2022-09-09T00:36:12;99732.56;;;13.29;100.00
60345;BME280;46188;52.324;8.032;2022-09-09T00:38:45;99726.41;;;13.31;100.00
60345;BME280;46188;52.324;8.032;2022-09-09T00:43:56;99729.03;;;13.31;100.00
60345;BME280;46188;52.324;8.032;2022-09-09T00:52:16;99723.78;;;13.29;100.00
60345;BME280;46188;52.324;8.032;2022-09-09T01:04:49;99729.03;;;13.32;100.00
60345;BME280;46188;52.324;8.032;2022-09-09T01:07:17;99729.00;;;13.34;100.00
60345;BME280;46188;52.324;8.032;2022-09-09T01:12:17;99720.97;;;13.43;100.00
60345;BME280;46188;52.324;8.032;2022-09-09T01:14:45;99721.84;;;13.43;100.00
60345;BME280;46188;52.324;8.032;2022-09-09T01:17:30;99711.22;;;13.46;100.00
60345;BME280;46188;52.324;8.032;2022-09-09T01:20:09;99718.25;;;13.49;100.00
60345;BME280;46188;52.324;8.032;2022-09-09T01:27:38;99711.19;;;13.50;100.00
60345;BME280;46188;52.324;8.032;2022-09-09T01:30:08;99712.03;;;13.52;100.00
60345;BME280;46188;52.324;8.032;2022-09-09T01:32:42;99708.50;;;13.51;100.00
60345;BME280;46188;52.324;8.032;2022-09-09T01:35:08;99706.75;;;13.50;100.00
60345;BME280;46188;52.324;8.032;2022-09-09T01:37:36;99712.94;;;13.51;100.00
60345;BME280;46188;52.324;8.032;2022-09-09T01:40:01;99712.00;;;13.53;100.00
60345;BME280;46188;52.324;8.032;2022-09-09T01:42:27;99711.13;;;13.53;100.00
60345;BME280;46188;52.324;8.032;2022-09-09T01:44:52;99709.34;;;13.55;100.00
60345;BME280;46188;52.324;8.032;2022-09-09T01:47:19;99712.81;;;13.58;100.00
60345;BME280;46188;52.324;8.032;2022-09-09T01:49:44;99704.84;;;13.61;100.00
60345;BME280;46188;52.324;8.032;2022-09-09T01:52:09;99709.22;;;13.64;100.00
60345;BME280;46188;52.324;8.032;2022-09-09T01:54:35;99705.63;;;13.66;100.00
60345;BME280;46188;52.324;8.032;2022-09-09T01:57:05;99715.31;;;13.71;100.00
60345;BME280;46188;52.324;8.032;2022-09-09T02:02:32;99718.81;;;13.71;100.00
60345;BME280;46188;52.324;8.032;2022-09-09T02:05:06;99722.31;;;13.73;100.00
60345;BME280;46188;52.324;8.032;2022-09-09T02:07:39;99731.19;;;13.71;100.00
60345;BME280;46188;52.324;8.032;2022-09-09T02:12:39;99741.78;;;13.71;100.00
60345;BME280;46188;52.324;8.032;2022-09-09T02:15:07;99743.53;;;13.70;100.00
60345;BME280;46188;52.324;8.032;2022-09-09T02:17:36;99750.56;;;13.76;100.00
60345;BME280;46188;52.324;8.032;2022-09-09T02:20:05;99750.53;;;13.79;100.00
60345;BME280;46188;52.324;8.032;2022-09-09T02:22:33;99752.22;;;13.81;100.00
60345;BME280;46188;52.324;8.032;2022-09-09T02:24:59;99759.28;;;13.82;100.00
60345;BME280;46188;52.324;8.032;2022-09-09T02:27:25;99764.59;;;13.82;100.00
60345;BME280;46188;52.324;8.032;2022-09-09T02:29:51;99762.81;;;13.83;100.00
60345;BME280;46188;52.324;8.032;2022-09-09T02:32:17;99763.66;;;13.85;100.00
60345;BME280;46188;52.324;8.032;2022-09-09T02:34:45;99754.84;;;13.84;100.00
60345;BME280;46188;52.324;8.032;2022-09-09T02:37:12;99757.44;;;13.88;100.00
60345;BME280;46188;52.324;8.032;2022-09-09T02:39:40;99756.56;;;13.89;100.00
60345;BME280;46188;52.324;8.032;2022-09-09T02:42:05;99745.91;;;13.92;100.00
60345;BME280;46188;52.324;8.032;2022-09-09T02:44:32;99742.38;;;13.93;100.00
60345;BME280;46188;52.324;8.032;2022-09-09T02:52:16;99739.78;;;13.88;100.00
60345;BME280;46188;52.324;8.032;2022-09-09T02:54:43;99731.88;;;13.85;100.00
60345;BME280;46188;52.324;8.032;2022-09-09T02:57:17;99738.94;;;13.84;100.00
60345;BME280;46188;52.324;8.032;2022-09-09T02:59:44;99738.97;;;13.81;100.00
60345;BME280;46188;52.324;8.032;2022-09-09T03:02:10;99745.19;;;13.82;100.00
60345;BME280;46188;52.324;8.032;2022-09-09T03:04:36;99747.84;;;13.80;100.00
60345;BME280;46188;52.324;8.032;2022-09-09T03:07:01;99748.75;;;13.78;100.00
60345;BME280;46188;52.324;8.032;2022-09-09T03:09:28;99748.78;;;13.75;100.00
60345;BME280;46188;52.324;8.032;2022-09-09T03:11:54;99753.16;;;13.79;100.00
60345;BME280;46188;52.324;8.032;2022-09-09T03:14:20;99756.75;;;13.75;100.00
60345;BME280;46188;52.324;8.032;2022-09-09T03:16:49;99753.28;;;13.68;100.00
60345;BME280;46188;52.324;8.032;2022-09-09T03:19:15;99755.97;;;13.66;100.00
60345;BME280;46188;52.324;8.032;2022-09-09T03:21:40;99748.03;;;13.65;100.00
60345;BME280;46188;52.324;8.032;2022-09-09T03:24:05;99755.06;;;13.68;100.00
60345;BME280;46188;52.324;8.032;2022-09-09T03:26:31;99743.66;;;13.64;100.00
60345;BME280;46188;52.324;8.032;2022-09-09T03:28:56;99748.06;;;13.62;100.00
60345;BME280;46188;52.324;8.032;2022-09-09T03:31:22;99752.53;;;13.58;100.00
60345;BME280;46188;52.324;8.032;2022-09-09T03:33:47;99745.53;;;13.54;100.00
60345;BME280;46188;52.324;8.032;2022-09-09T03:36:13;99750.88;;;13.51;100.00
60345;BME280;46188;52.324;8.032;2022-09-09T03:38:39;99749.16;;;13.47;100.00
60345;BME280;46188;52.324;8.032;2022-09-09T03:41:04;99755.34;;;13.47;100.00
60345;BME280;46188;52.324;8.032;2022-09-09T03:43:32;99746.47;;;13.48;100.00
60345;BME280;46188;52.324;8.032;2022-09-09T03:45:58;99749.16;;;13.47;100.00
60345;BME280;46188;52.324;8.032;2022-09-09T03:48:24;99751.78;;;13.47;100.00
60345;BME280;46188;52.324;8.032;2022-09-09T03:50:50;99753.56;;;13.48;100.00
60345;BME280;46188;52.324;8.032;2022-09-09T03:53:17;99747.34;;;13.52;100.00
60345;BME280;46188;52.324;8.032;2022-09-09T03:55:49;99755.22;;;13.54;100.00
60345;BME280;46188;52.324;8.032;2022-09-09T03:58:16;99752.53;;;13.58;100.00
60345;BME280;46188;52.324;8.032;2022-09-09T04:00:43;99755.16;;;13.61;100.00
60345;BME280;46188;52.324;8.032;2022-09-09T04:03:10;99748.94;;;13.65;100.00
60345;BME280;46188;52.324;8.032;2022-09-09T04:05:35;99745.38;;;13.65;100.00
60345;BME280;46188;52.324;8.032;2022-09-09T04:08:04;99745.38;;;13.65;100.00
60345;BME280;46188;52.324;8.032;2022-09-09T04:10:29;99734.78;;;13.66;100.00
60345;BME280;46188;52.324;8.032;2022-09-09T04:12:55;99737.41;;;13.68;100.00
60345;BME280;46188;52.324;8.032;2022-09-09T04:15:20;99739.22;;;13.66;100.00
60345;BME280;46188;52.324;8.032;2022-09-09T04:17:46;99737.47;;;13.63;100.00
60345;BME280;46188;52.324;8.032;2022-09-09T04:20:11;99731.31;;;13.61;100.00
60345;BME280;46188;52.324;8.032;2022-09-09T04:22:37;99735.75;;;13.59;100.00
60345;BME280;46188;52.324;8.032;2022-09-09T04:25:04;99741.94;;;13.58;100.00
60345;BME280;46188;52.324;8.032;2022-09-09T04:27:29;99739.28;;;13.58;100.00
60345;BME280;46188;52.324;8.032;2022-09-09T04:29:54;99750.81;;;13.57;100.00
60345;BME280;46188;52.324;8.032;2022-09-09T04:32:21;99735.81;;;13.55;100.00
60345;BME280;46188;52.324;8.032;2022-09-09T04:34:46;99736.69;;;13.55;100.00
60345;BME280;46188;52.324;8.032;2022-09-09T04:37:12;99744.66;;;13.54;100.00
60345;BME280;46188;52.324;8.032;2022-09-09T04:39:38;99744.69;;;13.52;100.00
60345;BME280;46188;52.324;8.032;2022-09-09T04:42:04;99749.91;;;13.55;100.00
60345;BME280;46188;52.324;8.032;2022-09-09T04:44:29;99752.63;;;13.52;100.00
60345;BME280;46188;52.324;8.032;2022-09-09T04:46:55;99752.63;;;13.52;100.00
60345;BME280;46188;52.324;8.032;2022-09-09T04:49:21;99752.63;;;13.52;100.00
60345;BME280;46188;52.324;8.032;2022-09-09T04:51:48;99753.50;;;13.53;100.00
60345;BME280;46188;52.324;8.032;2022-09-09T04:54:14;99749.06;;;13.53;100.00
60345;BME280;46188;52.324;8.032;2022-09-09T04:56:39;99759.66;;;13.53;100.00
60345;BME280;46188;52.324;8.032;2022-09-09T04:59:06;99750.84;;;13.54;100.00
60345;BME280;46188;52.324;8.032;2022-09-09T05:01:31;99754.34;;;13.56;100.00
60345;BME280;46188;52.324;8.032;2022-09-09T05:03:57;99754.31;;;13.59;100.00
60345;BME280;46188;52.324;8.032;2022-09-09T05:06:22;99748.06;;;13.62;100.00
60345;BME280;46188;52.324;8.032;2022-09-09T05:08:48;99747.16;;;13.64;100.00
60345;BME280;46188;52.324;8.032;2022-09-09T05:11:18;99748.91;;;13.67;100.00
60345;BME280;46188;52.324;8.032;2022-09-09T05:13:44;99753.25;;;13.73;100.00
60345;BME280;46188;52.324;8.032;2022-09-09T05:16:10;99748.78;;;13.75;100.00
60345;BME280;46188;52.324;8.032;2022-09-09T05:18:36;99752.28;;;13.77;100.00
60345;BME280;46188;52.324;8.032;2022-09-09T05:21:01;99757.56;;;13.80;100.00
60345;BME280;46188;52.324;8.032;2022-09-09T05:23:27;99754.84;;;13.83;100.00
60345;BME280;46188;52.324;8.032;2022-09-09T05:25:56;99753.06;;;13.85;100.00
60345;BME280;46188;52.324;8.032;2022-09-09T05:28:22;99749.50;;;13.88;100.00
60345;BME280;46188;52.324;8.032;2022-09-09T05:30:54;99752.09;;;13.92;100.00
60345;BME280;46188;52.324;8.032;2022-09-09T05:33:20;99747.66;;;13.93;100.00
60345;BME280;46188;52.324;8.032;2022-09-09T05:35:46;99748.53;;;13.93;100.00
60345;BME280;46188;52.324;8.032;2022-09-09T05:38:11;99752.06;;;13.95;100.00
60345;BME280;46188;52.324;8.032;2022-09-09T05:40:36;99752.06;;;13.95;100.00
60345;BME280;46188;52.324;8.032;2022-09-09T05:43:01;99754.59;;;14.01;100.00
60345;BME280;46188;52.324;8.032;2022-09-09T05:45:27;99758.09;;;14.05;100.00
60345;BME280;46188;52.324;8.032;2022-09-09T05:47:52;99758.06;;;14.07;100.00
60345;BME280;46188;52.324;8.032;2022-09-09T05:50:20;99754.50;;;14.09;100.00
60345;BME280;46188;52.324;8.032;2022-09-09T05:52:45;99762.38;;;14.14;100.00
60345;BME280;46188;52.324;8.032;2022-09-09T05:55:10;99763.22;;;14.17;100.00
60345;BME280;46188;52.324;8.032;2022-09-09T05:57:36;99764.00;;;14.23;100.00
60345;BME280;46188;52.324;8.032;2022-09-09T06:00:01;99763.94;;;14.27;100.00
60345;BME280;46188;52.324;8.032;2022-09-09T06:02:27;99764.72;;;14.34;100.00
60345;BME280;46188;52.324;8.032;2022-09-09T06:04:52;99765.50;;;14.40;100.00
60345;BME280;46188;52.324;8.032;2022-09-09T06:07:18;99761.88;;;14.45;100.00
60345;BME280;46188;52.324;8.032;2022-09-09T06:09:43;99765.28;;;14.53;100.00
60345;BME280;46188;52.324;8.032;2022-09-09T06:12:08;99766.97;;;14.58;100.00
60345;BME280;46188;52.324;8.032;2022-09-09T06:14:34;99759.81;;;14.65;100.00
60345;BME280;46188;52.324;8.032;2022-09-09T06:16:59;99759.72;;;14.71;100.00
60345;BME280;46188;52.324;8.032;2022-09-09T06:19:24;99762.19;;;14.82;100.00
60345;BME280;46188;52.324;8.032;2022-09-09T06:21:51;99759.34;;;14.93;100.00
60345;BME280;46188;52.324;8.032;2022-09-09T06:24:17;99752.97;;;15.02;100.00
60345;BME280;46188;52.324;8.032;2022-09-09T06:26:44;99757.22;;;15.10;100.00
60345;BME280;46188;52.324;8.032;2022-09-09T06:29:10;99763.16;;;15.25;100.00
60345;BME280;46188;52.324;8.032;2022-09-09T06:31:36;99755.09;;;15.31;100.00
60345;BME280;46188;52.324;8.032;2022-09-09T06:34:03;99755.91;;;15.33;100.00
60345;BME280;46188;52.324;8.032;2022-09-09T06:36:33;99757.63;;;15.36;100.00
60345;BME280;46188;52.324;8.032;2022-09-09T06:38:59;99749.66;;;15.36;100.00
60345;BME280;46188;52.324;8.032;2022-09-09T06:41:26;99751.50;;;15.32;100.00
60345;BME280;46188;52.324;8.032;2022-09-09T06:43:51;99749.81;;;15.29;100.00
60345;BME280;46188;52.324;8.032;2022-09-09T06:48:43;99749.88;;;15.25;100.00
60345;BME280;46188;52.324;8.032;2022-09-09T06:51:12;99752.63;;;15.20;100.00
60345;BME280;46188;52.324;8.032;2022-09-09T06:53:38;99755.25;;;15.22;100.00
60345;BME280;46188;52.324;8.032;2022-09-09T06:58:36;99762.38;;;15.20;100.00
60345;BME280;46188;52.324;8.032;2022-09-09T07:01:02;99761.53;;;15.18;100.00
60345;BME280;46188;52.324;8.032;2022-09-09T07:03:28;99763.22;;;15.22;100.00
60345;BME280;46188;52.324;8.032;2022-09-09T07:05:54;99766.78;;;15.19;100.00
60345;BME280;46188;52.324;8.032;2022-09-09T07:08:20;99764.19;;;15.18;100.00
60345;BME280;46188;52.324;8.032;2022-09-09T07:10:45;99765.94;;;15.19;100.00
60345;BME280;46188;52.324;8.032;2022-09-09T07:13:10;99763.19;;;15.23;100.00
60345;BME280;46188;52.324;8.032;2022-09-09T07:15:35;99759.63;;;15.24;100.00
60345;BME280;46188;52.324;8.032;2022-09-09T07:18:01;99757.75;;;15.29;100.00
60345;BME280;46188;52.324;8.032;2022-09-09T07:20:27;99755.88;;;15.35;100.00
60345;BME280;46188;52.324;8.032;2022-09-09T07:22:54;99762.97;;;15.34;100.00
60345;BME280;46188;52.324;8.032;2022-09-09T07:25:21;99763.84;;;15.35;100.00
60345;BME280;46188;52.324;8.032;2022-09-09T07:27:46;99762.06;;;15.35;100.00
60345;BME280;46188;52.324;8.032;2022-09-09T07:30:12;99761.19;;;15.36;100.00
60345;BME280;46188;52.324;8.032;2022-09-09T07:32:37;99760.25;;;15.37;100.00
60345;BME280;46188;52.324;8.032;2022-09-09T07:35:03;99776.00;;;15.46;100.00
60345;BME280;46188;52.324;8.032;2022-09-09T07:37:28;99767.88;;;15.56;100.00
60345;BME280;46188;52.324;8.032;2022-09-09T07:39:53;99771.84;;;15.75;100.00
60345;BME280;46188;52.324;8.032;2022-09-09T07:42:19;99776.03;;;15.89;100.00
60345;BME280;46188;52.324;8.032;2022-09-09T07:44:44;99772.88;;;16.10;100.00
60345;BME280;46188;52.324;8.032;2022-09-09T07:47:09;99774.25;;;16.28;100.00
60345;BME280;46188;52.324;8.032;2022-09-09T07:49:35;99780.88;;;16.48;100.00
60345;BME280;46188;52.324;8.032;2022-09-09T07:52:00;99777.13;;;16.56;100.00
60345;BME280;46188;52.324;8.032;2022-09-09T07:54:25;99782.28;;;16.63;100.00
60345;BME280;46188;52.324;8.032;2022-09-09T07:56:51;99786.97;;;16.53;100.00
60345;BME280;46188;52.324;8.032;2022-09-09T07:59:17;99782.44;;;16.56;100.00
60345;BME280;46188;52.324;8.032;2022-09-09T08:01:44;99782.06;;;16.72;100.00
60345;BME280;46188;52.324;8.032;2022-09-09T08:04:11;99785.25;;;17.21;100.00
60345;BME280;46188;52.324;8.032;2022-09-09T08:06:41;99787.63;;;17.31;100.00
60345;BME280;46188;52.324;8.032;2022-09-09T08:09:07;99773.94;;;19.15;100.00
60345;BME280;46188;52.324;8.032;2022-09-09T08:11:33;99779.44;;;20.52;88.01
60345;BME280;46188;52.324;8.032;2022-09-09T08:14:00;99775.88;;;21.77;79.48
60345;BME280;46188;52.324;8.032;2022-09-09T08:16:27;99777.44;;;22.19;76.47
60345;BME280;46188;52.324;8.032;2022-09-09T08:18:53;99766.63;;;22.93;68.65
60345;BME280;46188;52.324;8.032;2022-09-09T08:21:23;99772.97;;;22.56;73.29
60345;BME280;46188;52.324;8.032;2022-09-09T08:23:50;99779.72;;;22.64;66.19
60345;BME280;46188;52.324;8.032;2022-09-09T08:26:24;99768.69;;;23.23;65.19
60345;BME280;46188;52.324;8.032;2022-09-09T08:28:50;99782.25;;;22.12;70.39
60345;BME280;46188;52.324;8.032;2022-09-09T08:31:17;99778.06;;;22.06;69.12
60345;BME280;46188;52.324;8.032;2022-09-09T08:33:43;99784.50;;;22.02;71.92
60345;BME280;46188;52.324;8.032;2022-09-09T08:36:12;99786.94;;;21.88;72.59
60345;BME280;46188;52.324;8.032;2022-09-09T08:38:38;99789.13;;;21.40;74.75
60345;BME280;46188;52.324;8.032;2022-09-09T08:41:10;99795.41;;;20.32;76.79
60345;BME280;46188;52.324;8.032;2022-09-09T08:43:38;99780.78;;;20.18;76.56
60345;BME280;46188;52.324;8.032;2022-09-09T08:46:17;99789.38;;;20.26;77.98
60345;BME280;46188;52.324;8.032;2022-09-09T08:48:58;99791.56;;;20.39;78.78
60345;BME280;46188;52.324;8.032;2022-09-09T08:51:27;99799.06;;;20.07;78.95
60345;BME280;46188;52.324;8.032;2022-09-09T08:53:55;99789.66;;;20.42;74.61
60345;BME280;46188;52.324;8.032;2022-09-09T08:56:24;99794.94;;;21.29;72.42
60345;BME280;46188;52.324;8.032;2022-09-09T08:58:50;99799.31;;;22.30;68.29
60345;BME280;46188;52.324;8.032;2022-09-09T09:01:23;99801.38;;;22.79;66.19
60345;BME280;46188;52.324;8.032;2022-09-09T09:03:59;99789.44;;;21.53;73.00
60345;BME280;46188;52.324;8.032;2022-09-09T09:09:08;99793.56;;;19.63;78.68
60345;BME280;46188;52.324;8.032;2022-09-09T09:11:44;99796.81;;;19.22;82.25
60345;BME280;46188;52.324;8.032;2022-09-09T09:14:19;99796.91;;;20.39;74.95
60345;BME280;46188;52.324;8.032;2022-09-09T09:17:01;99803.69;;;19.80;79.75
60345;BME280;46188;52.324;8.032;2022-09-09T09:19:28;99803.38;;;19.13;79.63
60345;BME280;46188;52.324;8.032;2022-09-09T09:27:12;99802.59;;;18.28;88.02
60345;BME280;46188;52.324;8.032;2022-09-09T09:29:38;99799.38;;;18.17;90.84
60345;BME280;46188;52.324;8.032;2022-09-09T09:32:05;99807.22;;;19.31;84.80
60345;BME280;46188;52.324;8.032;2022-09-09T09:34:32;99796.50;;;20.27;79.17
60345;BME280;46188;52.324;8.032;2022-09-09T09:36:58;99801.06;;;20.70;80.96
60345;BME280;46188;52.324;8.032;2022-09-09T09:39:30;99801.50;;;21.43;74.90
60345;BME280;46188;52.324;8.032;2022-09-09T09:41:55;99801.06;;;20.70;77.95
60345;BME280;46188;52.324;8.032;2022-09-09T09:44:24;99795.22;;;21.02;77.62
60345;BME280;46188;52.324;8.032;2022-09-09T09:46:50;99798.94;;;20.98;77.22
60345;BME280;46188;52.324;8.032;2022-09-09T09:49:15;99798.47;;;20.22;77.82
60345;BME280;46188;52.324;8.032;2022-09-09T09:51:40;99798.13;;;20.96;76.81
60345;BME280;46188;52.324;8.032;2022-09-09T09:56:38;99798.25;;;21.56;71.98
60345;BME280;46188;52.324;8.032;2022-09-09T09:59:04;99781.63;;;23.50;60.64
60345;BME280;46188;52.324;8.032;2022-09-09T10:01:32;99778.88;;;26.40;52.37
60345;BME280;46188;52.324;8.032;2022-09-09T10:04:00;99786.22;;;33.41;38.81
60345;BME280;46188;52.324;8.032;2022-09-09T10:06:33;99782.13;;;38.22;31.44
60345;BME280;46188;52.324;8.032;2022-09-09T10:08:59;99774.97;;;37.24;30.55
60345;BME280;46188;52.324;8.032;2022-09-09T10:14:13;99760.47;;;40.75;25.72
60345;BME280;46188;52.324;8.032;2022-09-09T10:27:03;99736.34;;;36.76;24.24
60345;BME280;46188;52.324;8.032;2022-09-09T10:29:33;99745.69;;;30.62;35.45
60345;BME280;46188;52.324;8.032;2022-09-09T10:32:09;99738.38;;;28.81;38.70
60345;BME280;46188;52.324;8.032;2022-09-09T10:34:54;99737.84;;;26.88;43.59
60345;BME280;46188;52.324;8.032;2022-09-09T10:39:47;99749.75;;;31.00;39.39
60345;BME280;46188;52.324;8.032;2022-09-09T10:42:13;99734.22;;;28.88;41.27
60345;BME280;46188;52.324;8.032;2022-09-09T10:47:17;99737.47;;;29.74;37.41
60345;BME280;46188;52.324;8.032;2022-09-09T10:49:52;99739.63;;;31.02;36.00
60345;BME280;46188;52.324;8.032;2022-09-09T10:59:46;99745.19;;;22.39;53.93
60345;BME280;46188;52.324;8.032;2022-09-09T11:02:17;99743.75;;;21.75;56.91
60345;BME280;46188;52.324;8.032;2022-09-09T11:04:46;99742.13;;;21.52;57.52
60345;BME280;46188;52.324;8.032;2022-09-09T11:07:14;99739.25;;;21.56;57.58
60345;BME280;46188;52.324;8.032;2022-09-09T11:09:47;99737.31;;;20.78;60.07
60345;BME280;46188;52.324;8.032;2022-09-09T11:12:17;99736.25;;;20.82;61.30
60345;BME280;46188;52.324;8.032;2022-09-09T11:14:51;99733.88;;;21.36;61.23
60345;BME280;46188;52.324;8.032;2022-09-09T11:17:21;99724.09;;;21.35;60.39
60345;BME280;46188;52.324;8.032;2022-09-09T11:19:47;99731.03;;;21.98;58.23
60345;BME280;46188;52.324;8.032;2022-09-09T11:22:33;99718.13;;;23.14;56.58
60345;BME280;46188;52.324;8.032;2022-09-09T11:25:06;99719.91;;;23.96;55.41
60345;BME280;46188;52.324;8.032;2022-09-09T11:27:56;99733.13;;;24.01;52.61
60345;BME280;46188;52.324;8.032;2022-09-09T11:30:29;99729.84;;;23.78;52.23
60345;BME280;46188;52.324;8.032;2022-09-09T11:40:45;99727.56;;;24.20;51.61
60345;BME280;46188;52.324;8.032;2022-09-09T11:43:15;99721.50;;;24.00;50.46
60345;BME280;46188;52.324;8.032;2022-09-09T11:45:42;99731.56;;;23.47;52.32
60345;BME280;46188;52.324;8.032;2022-09-09T11:48:27;99728.75;;;23.33;54.43
60345;BME280;46188;52.324;8.032;2022-09-09T11:50:57;99738.56;;;22.81;53.46
60345;BME280;46188;52.324;8.032;2022-09-09T11:53:23;99743.97;;;22.26;55.65
60345;BME280;46188;52.324;8.032;2022-09-09T11:56:09;99743.72;;;21.94;56.33
60345;BME280;46188;52.324;8.032;2022-09-09T11:58:40;99732.72;;;21.62;58.12
60345;BME280;46188;52.324;8.032;2022-09-09T12:01:24;99744.16;;;22.23;57.49
60345;BME280;46188;52.324;8.032;2022-09-09T12:03:51;99736.06;;;21.86;56.02
60345;BME280;46188;52.324;8.032;2022-09-09T12:06:33;99733.53;;;21.44;57.40
60345;BME280;46188;52.324;8.032;2022-09-09T12:09:18;99736.75;;;21.71;58.32
60345;BME280;46188;52.324;8.032;2022-09-09T12:11:45;99722.91;;;22.55;52.57
60345;BME280;46188;52.324;8.032;2022-09-09T12:14:20;99740.38;;;22.46;53.42
60345;BME280;46188;52.324;8.032;2022-09-09T12:16:46;99733.69;;;22.36;54.72
60345;BME280;46188;52.324;8.032;2022-09-09T12:24:11;99731.34;;;21.53;56.76
60345;BME280;46188;52.324;8.032;2022-09-09T12:31:46;99737.63;;;20.70;56.40
60345;BME280;46188;52.324;8.032;2022-09-09T12:39:37;99728.88;;;20.67;58.93
60345;BME280;46188;52.324;8.032;2022-09-09T12:42:03;99723.47;;;20.46;58.06
60345;BME280;46188;52.324;8.032;2022-09-09T12:44:29;99722.72;;;20.64;57.77
60345;BME280;46188;52.324;8.032;2022-09-09T12:46:55;99711.00;;;20.88;56.26
60345;BME280;46188;52.324;8.032;2022-09-09T12:49:28;99705.69;;;21.46;57.98
60345;BME280;46188;52.324;8.032;2022-09-09T12:51:56;99700.19;;;21.70;56.19
60345;BME280;46188;52.324;8.032;2022-09-09T12:54:22;99695.38;;;21.77;57.60
60345;BME280;46188;52.324;8.032;2022-09-09T12:56:48;99699.06;;;21.93;55.94
60345;BME280;46188;52.324;8.032;2022-09-09T12:59:24;99698.78;;;21.61;55.38
60345;BME280;46188;52.324;8.032;2022-09-09T13:01:56;99700.22;;;21.87;56.84
60345;BME280;46188;52.324;8.032;2022-09-09T13:04:22;99692.00;;;22.63;55.11
60345;BME280;46188;52.324;8.032;2022-09-09T13:06:47;99689.25;;;22.47;53.13
60345;BME280;46188;52.324;8.032;2022-09-09T13:09:14;99696.59;;;22.79;55.21
60345;BME280;46188;52.324;8.032;2022-09-09T13:11:40;99685.59;;;23.01;54.35
60345;BME280;46188;52.324;8.032;2022-09-09T13:14:19;99693.91;;;22.61;53.98
60345;BME280;46188;52.324;8.032;2022-09-09T13:16:56;99686.78;;;22.60;56.15
60345;BME280;46188;52.324;8.032;2022-09-09T13:19:22;99690.19;;;22.46;55.65
60345;BME280;46188;52.324;8.032;2022-09-09T13:21:50;99690.09;;;22.30;53.56
60345;BME280;46188;52.324;8.032;2022-09-09T13:24:28;99691.06;;;22.10;56.43
60345;BME280;46188;52.324;8.032;2022-09-09T13:26:58;99679.28;;;21.77;52.45
60345;BME280;46188;52.324;8.032;2022-09-09T13:29:27;99669.34;;;21.60;53.92
60345;BME280;46188;52.324;8.032;2022-09-09T13:31:52;99673.16;;;21.35;53.95
60345;BME280;46188;52.324;8.032;2022-09-09T13:34:29;99686.72;;;21.32;52.97
60345;BME280;46188;52.324;8.032;2022-09-09T13:36:56;99694.63;;;21.35;57.30
60345;BME280;46188;52.324;8.032;2022-09-09T13:39:24;99682.22;;;21.32;56.57
60345;BME280;46188;52.324;8.032;2022-09-09T13:41:49;99689.25;;;21.35;56.85
60345;BME280;46188;52.324;8.032;2022-09-09T13:44:22;99683.06;;;21.53;57.16
60345;BME280;46188;52.324;8.032;2022-09-09T13:46:59;99682.09;;;21.54;56.36
60345;BME280;46188;52.324;8.032;2022-09-09T13:49:25;99686.56;;;21.35;56.83
60345;BME280;46188;52.324;8.032;2022-09-09T13:52:02;99677.63;;;21.15;55.30
60345;BME280;46188;52.324;8.032;2022-09-09T13:54:27;99686.47;;;21.17;54.97
60345;BME280;46188;52.324;8.032;2022-09-09T13:56:53;99682.16;;;21.34;56.32
60345;BME280;46188;52.324;8.032;2022-09-09T13:59:19;99683.28;;;21.49;56.27
60345;BME280;46188;52.324;8.032;2022-09-09T14:01:49;99676.09;;;21.49;54.75
60345;BME280;46188;52.324;8.032;2022-09-09T14:04:16;99676.75;;;21.54;55.61
60345;BME280;46188;52.324;8.032;2022-09-09T14:06:42;99679.06;;;21.62;54.67
60345;BME280;46188;52.324;8.032;2022-09-09T14:09:10;99683.13;;;21.90;52.97
60345;BME280;46188;52.324;8.032;2022-09-09T14:11:35;99681.94;;;21.96;51.98
60345;BME280;46188;52.324;8.032;2022-09-09T14:14:01;99671.66;;;21.67;50.75
60345;BME280;46188;52.324;8.032;2022-09-09T14:16:26;99673.38;;;21.30;52.51
60345;BME280;46188;52.324;8.032;2022-09-09T14:18:52;99674.56;;;21.23;54.45
60345;BME280;46188;52.324;8.032;2022-09-09T14:21:18;99674.56;;;21.23;56.20
60345;BME280;46188;52.324;8.032;2022-09-09T14:23:43;99683.72;;;21.19;54.79
60345;BME280;46188;52.324;8.032;2022-09-09T14:26:08;99686.00;;;21.08;54.67
60345;BME280;46188;52.324;8.032;2022-09-09T14:28:35;99682.41;;;20.88;55.72
60345;BME280;46188;52.324;8.032;2022-09-09T14:31:00;99685.63;;;20.76;54.83
60345;BME280;46188;52.324;8.032;2022-09-09T14:33:26;99687.44;;;20.53;55.33
60345;BME280;46188;52.324;8.032;2022-09-09T14:36:00;99705.09;;;20.37;55.68
60345;BME280;46188;52.324;8.032;2022-09-09T14:38:29;99717.88;;;20.08;57.30
60345;BME280;46188;52.324;8.032;2022-09-09T14:40:55;99732.34;;;19.80;58.62
60345;BME280;46188;52.324;8.032;2022-09-09T14:43:21;99745.09;;;19.48;60.00
60345;BME280;46188;52.324;8.032;2022-09-09T14:45:46;99753.22;;;19.22;65.59
60345;BME280;46188;52.324;8.032;2022-09-09T14:48:13;99766.03;;;18.58;77.97